Cleveland, Ohio
Traffic Map
Current Weather Conditions
Cleveland, Ohio
Clear
Clear
69°
Feels Like: 69°
Wind Chill: 69° Ceiling: Unl
Heat Index: 69° Visibility: 10mi
Dew Point: 51° Wind: 15mph
Humidity: 53% Direction: 160° (SSE)
Pressure: 30.07in Gusts: 0mph
Raw Report DataKBKL 250853Z AUTO 16013KT 10SM CLR 21/11 A3007 RMK AO2 SLP179 T02060106 56013
Traffic Incident Summary
Active as of:
Severity:
Category:
InformationThere was an issue retrieving the traffic information for this location. Please try a different location or try again shortly.
Advertisements
Track Severe Weather on mobile